Time;durP1;ratioP1;P1;durP2;ratioP2;P2;SDS_P1;SDS_P2;PMS_P1;PMS_P2;Temp;Humidity;BMP_temperature;BMP_pressure;BME280_temperature;BME280_humidity;BME280_pressure;Samples;Min_cycle;Max_cycle;Signal;HPM_P1;HPM_P2
2022/08/28 00:09:38;;;;;;;10.18;3.95;;;;;;;23.37;60.28;100069.50;18432578;32;20101;-55
2022/08/28 00:19:43;;;;;;;10.77;3.55;;;;;;;23.62;60.57;100052.88;18431795;32;20130;-55
2022/08/28 00:29:46;;;;;;;10.07;4.18;;;;;;;23.87;60.17;100037.13;18432306;32;20129;-55
2022/08/28 00:39:51;;;;;;;10.15;3.78;;;;;;;24.36;58.73;100059.78;18416756;32;20111;-55
2022/08/28 00:49:55;;;;;;;9.98;3.40;;;;;;;23.94;59.29;100049.97;18430459;32;20092;-55
2022/08/28 01:00:00;;;;;;;11.15;3.65;;;;;;;24.90;57.22;100037.53;18429987;32;20081;-55
2022/08/28 01:10:05;;;;;;;10.10;3.55;;;;;;;25.37;57.24;100047.69;18437290;32;20140;-55
2022/08/28 01:20:13;;;;;;;9.52;3.62;;;;;;;24.43;59.58;100054.91;18437079;32;20130;-55
2022/08/28 01:30:20;;;;;;;10.60;3.35;;;;;;;25.16;56.84;100074.94;18436403;32;20110;-55
2022/08/28 01:40:27;;;;;;;8.77;3.40;;;;;;;25.43;56.72;100081.16;18436531;32;20492;-55
2022/08/28 01:50:33;;;;;;;9.82;3.90;;;;;;;25.25;57.76;100091.28;18422987;32;20661;-55
2022/08/28 02:00:37;;;;;;;11.73;4.28;;;;;;;25.28;57.51;100075.03;18437036;32;20112;-55
2022/08/28 02:10:43;;;;;;;9.18;4.03;;;;;;;25.06;57.93;100101.44;18435801;32;20093;-55
2022/08/28 02:20:46;;;;;;;7.68;3.17;;;;;;;24.23;60.97;100100.59;18435207;32;20088;-55
2022/08/28 02:30:51;;;;;;;6.85;2.78;;;;;;;24.37;59.48;100088.16;18434947;32;20119;-55
2022/08/28 02:40:54;;;;;;;6.93;2.85;;;;;;;24.36;58.50;100055.31;18435989;32;20175;-55
2022/08/28 02:51:01;;;;;;;7.28;2.75;;;;;;;24.56;57.25;100038.91;18434236;32;20145;-56
2022/08/28 03:01:06;;;;;;;7.18;3.30;;;;;;;24.48;56.69;100052.78;18434301;32;20085;-56
2022/08/28 03:11:11;;;;;;;8.18;2.60;;;;;;;24.55;56.93;100050.56;18433464;32;20101;-56
2022/08/28 03:21:15;;;;;;;6.97;2.85;;;;;;;24.47;57.20;100091.97;18433550;32;20085;-56
2022/08/28 03:31:22;;;;;;;7.53;3.00;;;;;;;24.44;57.58;100128.66;18432289;32;20386;-55
2022/08/28 03:41:29;;;;;;;5.40;2.58;;;;;;;23.97;59.95;100102.22;18433978;32;20139;-55
2022/08/28 03:51:34;;;;;;;9.60;3.28;;;;;;;24.14;59.25;100098.50;18432664;32;20168;-55
2022/08/28 04:01:37;;;;;;;8.38;3.37;;;;;;;24.17;60.16;100116.97;18432490;32;20097;-56
2022/08/28 04:11:42;;;;;;;7.20;2.90;;;;;;;24.14;60.03;100116.31;18432289;32;20184;-55
2022/08/28 04:21:45;;;;;;;7.82;2.78;;;;;;;23.22;62.70;100119.19;18433073;32;20119;-55
2022/08/28 04:31:50;;;;;;;8.60;3.22;;;;;;;22.86;63.38;100114.16;18365911;32;20105;-55
2022/08/28 04:41:54;;;;;;;10.68;3.35;;;;;;;23.27;62.91;100114.47;18368281;32;20433;-55
2022/08/28 04:51:59;;;;;;;6.60;2.80;;;;;;;23.42;62.82;100118.03;18365932;32;20147;-55
2022/08/28 05:02:04;;;;;;;6.90;2.78;;;;;;;23.78;61.82;100119.38;18366095;32;20140;-55
2022/08/28 05:12:14;;;;;;;5.37;2.70;;;;;;;23.67;61.51;100120.03;18365402;32;20147;-55
2022/08/28 05:22:17;;;;;;;8.00;2.90;;;;;;;24.10;60.09;100140.50;18366128;32;20433;-56
2022/08/28 05:32:22;;;;;;;4.35;2.15;;;;;;;24.43;59.24;100132.28;18423870;32;20093;-56
2022/08/28 05:42:26;;;;;;;6.22;2.65;;;;;;;24.99;56.86;100140.16;18427679;32;20516;-55
2022/08/28 05:52:36;;;;;;;5.65;2.50;;;;;;;24.49;58.62;100162.06;18431450;32;20100;-55
2022/08/28 06:02:39;;;;;;;7.30;2.35;;;;;;;24.51;57.06;100145.94;18435825;32;20097;-55
2022/08/28 06:12:44;;;;;;;5.00;2.30;;;;;;;25.51;54.10;100137.59;18436601;32;20150;-55
2022/08/28 06:22:50;;;;;;;5.82;2.40;;;;;;;27.10;50.56;100120.88;18435474;32;20143;-55
2022/08/28 06:32:54;;;;;;;7.05;2.33;;;;;;;26.97;50.35;100116.47;18434584;32;20097;-56
2022/08/28 06:42:58;;;;;;;4.95;2.03;;;;;;;28.55;47.71;100120.28;18434860;32;20342;-56
2022/08/28 06:53:02;;;;;;;5.62;2.17;;;;;;;27.89;49.45;100124.66;18434274;32;20728;-56
2022/08/28 07:03:06;;;;;;;5.35;2.33;;;;;;;27.58;50.24;100124.41;18433354;32;20364;-56
2022/08/28 07:13:10;;;;;;;11.45;2.90;;;;;;;27.69;50.22;100127.94;18428941;32;146977;-56
2022/08/28 07:23:14;;;;;;;7.80;2.50;;;;;;;28.24;49.27;100158.53;18433457;32;20428;-56
2022/08/28 07:33:18;;;;;;;7.28;3.10;;;;;;;28.01;48.65;100147.81;18433283;32;20105;-56
2022/08/28 07:53:44;;;;;;;;;;;;;;;28.18;48.72;100164.41;18433118;32;20085;-56
2022/08/28 08:03:47;;;;;;;6.22;2.35;;;;;;;28.99;47.84;100160.56;18433905;32;19995;-56
2022/08/28 08:13:55;;;;;;;6.15;2.60;;;;;;;29.03;46.83;100162.84;18431837;32;20136;-55
2022/08/28 08:23:58;;;;;;;4.68;2.42;;;;;;;29.55;44.55;100161.25;18431756;32;20123;-56
2022/08/28 08:34:04;;;;;;;6.40;2.50;;;;;;;29.97;44.34;100153.06;18431575;32;20180;-55
2022/08/28 08:44:10;;;;;;;6.45;2.50;;;;;;;29.95;42.84;100171.19;18430972;32;20446;-55
2022/08/28 08:54:16;;;;;;;6.50;2.55;;;;;;;30.72;40.98;100186.88;18416119;32;20234;-56
2022/08/28 09:04:35;;;;;;;8.73;2.80;;;;;;;30.11;43.73;100196.78;18429799;32;20085;-56
2022/08/28 09:14:47;;;;;;;4.80;2.42;;;;;;;30.06;44.95;100194.50;18229053;32;20103;-56
2022/08/28 09:24:51;;;;;;;6.10;2.40;;;;;;;30.13;45.10;100190.28;18247748;32;20093;-56
2022/08/28 09:35:07;;;;;;;6.25;2.55;;;;;;;30.93;42.42;100183.25;18422276;32;20138;-56
2022/08/28 09:45:17;;;;;;;6.78;2.75;;;;;;;31.03;42.46;100181.38;18436405;32;20089;-56
2022/08/28 09:55:28;;;;;;;8.20;2.92;;;;;;;31.74;38.29;100173.03;18435635;32;20104;-56
2022/08/28 10:05:40;;;;;;;5.97;2.37;;;;;;;31.45;40.78;100180.25;18422659;32;20522;-56
2022/08/28 10:16:00;;;;;;;4.80;2.62;;;;;;;32.19;36.25;100175.00;18435664;32;20128;-56
2022/08/28 10:26:22;;;;;;;6.30;2.37;;;;;;;32.30;33.56;100163.16;18435264;32;20460;-56
2022/08/28 10:36:30;;;;;;;7.05;2.10;;;;;;;33.50;32.78;100151.28;18420636;32;20117;-56
2022/08/28 10:46:42;;;;;;;7.57;2.65;;;;;;;33.79;31.87;100147.34;18434824;32;20103;-56
2022/08/28 10:56:52;;;;;;;4.35;2.37;;;;;;;34.41;31.83;100148.94;18434455;32;20092;-56
2022/08/28 11:07:01;;;;;;;6.07;2.40;;;;;;;34.39;30.80;100140.12;18434175;32;20093;-56
2022/08/28 11:17:07;;;;;;;6.53;2.30;;;;;;;33.90;29.72;100130.81;18434068;32;20408;-56
2022/08/28 11:27:20;;;;;;;4.07;2.22;;;;;;;34.56;29.25;100124.78;18433550;32;20119;-56
2022/08/28 11:37:39;;;;;;;5.90;2.40;;;;;;;34.07;30.29;100128.22;18433082;32;20155;-55
2022/08/28 11:47:45;;;;;;;4.23;1.97;;;;;;;34.27;29.89;100127.94;18432363;32;20179;-56
2022/08/28 11:58:02;;;;;;;5.40;2.50;;;;;;;34.27;32.03;100120.62;18419533;32;20191;-55
2022/08/28 12:08:04;;;;;;;5.95;2.60;;;;;;;34.81;32.54;100119.38;18432741;32;20716;-56
2022/08/28 12:18:15;;;;;;;7.10;2.62;;;;;;;34.64;33.14;100112.25;18432085;32;20092;-56
2022/08/28 12:28:21;;;;;;;7.00;2.75;;;;;;;34.00;36.38;100113.62;18431756;32;20394;-56
2022/08/28 12:38:27;;;;;;;5.87;2.60;;;;;;;33.62;39.42;100103.12;18431341;32;20121;-55
2022/08/28 12:48:32;;;;;;;6.50;2.62;;;;;;;33.95;37.15;100116.78;18430857;32;20092;-56
2022/08/28 12:58:39;;;;;;;6.37;2.28;;;;;;;34.04;36.66;100109.56;18428930;32;20092;-56
2022/08/28 13:08:42;;;;;;;5.00;2.30;;;;;;;33.73;34.86;100105.56;18415319;32;20097;-55
2022/08/28 13:18:51;;;;;;;7.57;2.20;;;;;;;34.64;32.02;100096.00;18428764;32;20177;-56
2022/08/28 13:29:04;;;;;;;7.45;2.22;;;;;;;34.32;31.87;100087.63;18428426;32;20437;-56
2022/08/28 13:39:08;;;;;;;5.40;2.40;;;;;;;34.99;31.33;100078.50;18429133;32;20384;-55
2022/08/28 13:49:11;;;;;;;6.32;2.33;;;;;;;34.91;30.91;100073.12;18413213;32;20101;-56
2022/08/28 13:59:17;;;;;;;4.53;2.42;;;;;;;34.74;31.79;100061.44;18412702;32;20104;-56
2022/08/28 14:09:20;;;;;;;5.72;2.65;;;;;;;33.96;33.55;100052.66;18412695;32;20159;-56
2022/08/28 14:19:26;;;;;;;6.32;2.40;;;;;;;33.51;35.18;100055.56;18436089;32;20092;-56
2022/08/28 14:29:30;;;;;;;5.15;2.08;;;;;;;33.87;34.42;100047.25;18435441;32;20128;-56
2022/08/28 14:39:34;;;;;;;9.07;2.87;;;;;;;33.84;35.82;100042.12;18434925;32;20093;-56
2022/08/28 14:49:40;;;;;;;5.72;2.30;;;;;;;33.76;33.82;100052.94;18434643;32;20158;-56
2022/08/28 14:59:45;;;;;;;8.70;2.55;;;;;;;33.73;34.50;100051.44;18433644;32;20358;-56
2022/08/28 15:09:49;;;;;;;5.43;2.30;;;;;;;33.52;34.60;100053.69;18435131;32;20093;-56
2022/08/28 15:19:53;;;;;;;7.72;2.80;;;;;;;33.26;34.95;100058.09;18433521;32;20115;-56
2022/08/28 15:29:57;;;;;;;6.30;2.42;;;;;;;33.18;35.35;100055.34;18418182;32;20104;-56
2022/08/28 15:50:23;;;;;;;5.60;2.20;;;;;;;32.32;36.92;100066.63;18418731;32;20085;-55
2022/08/28 16:00:29;;;;;;;4.45;2.20;;;;;;;32.21;37.83;100074.97;18432676;32;20394;-55
2022/08/28 16:10:32;;;;;;;7.37;2.20;;;;;;;31.82;38.43;100071.53;18433378;32;20096;-56
2022/08/28 16:20:37;;;;;;;6.57;2.35;;;;;;;31.28;40.63;100072.13;18433090;32;20132;-56
2022/08/28 16:30:42;;;;;;;6.18;2.10;;;;;;;31.17;39.70;100066.88;18417273;32;20119;-56
2022/08/28 16:40:47;;;;;;;6.10;2.22;;;;;;;30.97;40.70;100058.00;18430848;32;20089;-56
2022/08/28 16:50:51;;;;;;;5.57;2.42;;;;;;;30.59;41.08;100057.84;18416459;32;20176;-56
2022/08/28 17:00:56;;;;;;;6.07;2.10;;;;;;;30.14;42.76;100083.47;18417082;32;20394;-56
2022/08/28 17:11:00;;;;;;;4.85;1.90;;;;;;;30.01;42.42;100094.44;18430679;32;20093;-56
2022/08/28 17:31:25;;;;;;;4.20;2.25;;;;;;;29.43;43.86;100120.09;18428955;32;20127;-56
2022/08/28 17:41:30;;;;;;;9.75;2.35;;;;;;;29.06;46.51;100138.41;18428050;32;20092;-56
2022/08/28 17:51:35;;;;;;;6.25;1.90;;;;;;;28.44;45.67;100145.31;18434661;32;20339;-56
2022/08/28 18:12:25;;;;;;;5.18;2.30;;;;;;;28.33;46.61;100187.31;18378173;32;20140;-55
2022/08/28 18:22:33;;;;;;;5.07;2.40;;;;;;;28.16;47.91;100185.97;18371280;32;20115;-56
2022/08/28 18:32:42;;;;;;;6.60;2.30;;;;;;;27.95;49.23;100191.22;18372847;32;20120;-55
2022/08/28 18:42:51;;;;;;;5.83;2.20;;;;;;;27.66;50.42;100199.72;18363182;32;20093;-56
2022/08/28 18:53:01;;;;;;;5.47;2.22;;;;;;;27.45;51.75;100196.84;18370993;32;20123;-56
2022/08/28 19:03:09;;;;;;;7.37;2.75;;;;;;;27.27;51.71;100203.50;18371998;32;20123;-56
2022/08/28 19:13:19;;;;;;;6.10;2.22;;;;;;;27.11;52.12;100213.66;18430550;32;20089;-56
2022/08/28 19:23:26;;;;;;;5.03;2.40;;;;;;;26.99;51.39;100205.56;18373393;32;20106;-56
2022/08/28 19:33:37;;;;;;;4.45;2.00;;;;;;;26.95;52.66;100219.31;18433611;32;20109;-56
2022/08/28 19:43:45;;;;;;;4.85;2.37;;;;;;;26.95;52.29;100220.19;18376125;32;20086;-56
2022/08/28 19:53:58;;;;;;;5.40;2.12;;;;;;;26.85;52.58;100238.72;18375792;32;20096;-56
2022/08/28 20:04:05;;;;;;;7.70;2.30;;;;;;;26.56;53.20;100239.03;18368298;32;20116;-56
2022/08/28 20:14:10;;;;;;;6.35;2.45;;;;;;;26.32;53.40;100263.03;18367784;32;20127;-56
2022/08/28 20:24:17;;;;;;;4.60;2.10;;;;;;;26.10;54.56;100272.56;18329957;32;20434;-55
2022/08/28 20:34:23;;;;;;;4.47;2.30;;;;;;;25.91;55.23;100264.94;18354345;32;20444;-55
2022/08/28 20:44:30;;;;;;;8.20;2.75;;;;;;;25.52;56.64;100264.91;18368340;32;20099;-55
2022/08/28 20:54:43;;;;;;;8.98;2.35;;;;;;;24.74;58.59;100275.22;18366593;32;20124;-55
2022/08/28 21:04:52;;;;;;;5.95;2.58;;;;;;;25.06;58.03;100272.31;18366468;32;20089;-55
2022/08/28 21:15:01;;;;;;;6.28;2.83;;;;;;;24.87;58.60;100263.81;18378146;32;20101;-55
2022/08/28 21:25:09;;;;;;;6.43;2.60;;;;;;;24.70;59.08;100265.69;18398729;32;20131;-56
2022/08/28 21:35:19;;;;;;;6.10;2.70;;;;;;;24.46;59.93;100281.47;18397012;32;20093;-55
2022/08/28 21:45:28;;;;;;;8.17;3.10;;;;;;;24.39;60.58;100295.16;18369464;32;20089;-55
2022/08/28 21:55:35;;;;;;;7.95;2.70;;;;;;;24.10;61.43;100291.66;18368944;32;20097;-55
2022/08/28 22:05:42;;;;;;;8.13;2.80;;;;;;;24.06;61.98;100300.75;18368896;32;20094;-55
2022/08/28 22:15:51;;;;;;;6.12;2.75;;;;;;;24.19;61.90;100307.09;18368388;32;20097;-55
2022/08/28 22:25:59;;;;;;;7.65;2.80;;;;;;;24.07;61.94;100302.47;18365660;32;99104;-55
2022/08/28 22:36:09;;;;;;;8.07;2.78;;;;;;;24.04;62.13;100303.50;18378092;32;20092;-55
2022/08/28 22:46:17;;;;;;;8.37;3.20;;;;;;;24.01;61.99;100290.34;18381999;32;20127;-55
2022/08/28 22:56:27;;;;;;;6.50;2.90;;;;;;;23.33;64.44;100307.66;18407479;32;20135;-55
2022/08/28 23:06:34;;;;;;;8.45;3.15;;;;;;;23.54;64.30;100292.25;18370386;32;20093;-55
2022/08/28 23:16:44;;;;;;;6.53;2.62;;;;;;;23.50;64.07;100298.69;18418859;32;20115;-55
2022/08/28 23:26:54;;;;;;;7.62;3.00;;;;;;;23.59;63.76;100308.81;18432950;32;20148;-55
2022/08/28 23:37:21;;;;;;;8.48;3.33;;;;;;;23.47;63.97;100305.03;18433932;32;20124;-55
2022/08/28 23:47:29;;;;;;;8.35;3.35;;;;;;;23.40;63.98;100312.53;18432337;32;20084;-55
2022/08/28 23:57:38;;;;;;;8.35;3.60;;;;;;;23.21;64.43;100323.38;18416066;32;20089;-55
